Terminal Aerodrome Forecast
Issued by NWS

Home | Current Version | Previous Version | Text Only | Print | Product List | Glossary On
Versions: 1 2 3 4 5 6 7 8 9 10 11 12 13 14 15
842
FTUS46 KLOX 261720
TAFOXR
TAF
KOXR 261720Z 2618/2718 06008KT P6SM VCSH FEW025 BKN050
     FM262000 14008KT P6SM SCT060
     FM270200 VRB03KT P6SM BKN050
     FM270900 VRB03KT P6SM VCSH SCT025 OVC040=

USA.gov is the U.S. government's official web portal to all federal, state and local government web resources and services.